Time;durP1;ratioP1;P1;durP2;ratioP2;P2;SDS_P1;SDS_P2;PMS_P1;PMS_P2;Temp;Humidity;BMP_temperature;BMP_pressure;BME280_temperature;BME280_humidity;BME280_pressure;Samples;Min_cycle;Max_cycle;Signal;HPM_P1;HPM_P2
2021/11/12 00:14:26;;;;;;;2.53;1.95;;;2.80;99.90;;;;;;5097227;28;20085;-79
2021/11/12 00:17:11;;;;;;;0.20;0.20;;;2.80;99.90;;;;;;5097183;28;20128;-78
2021/11/12 00:19:56;;;;;;;1.75;1.65;;;2.80;99.90;;;;;;5096681;28;20039;-78
2021/11/12 00:22:40;;;;;;;1.30;1.30;;;2.80;99.90;;;;;;5095782;28;20573;-79
2021/11/12 00:25:26;;;;;;;2.55;1.48;;;2.70;99.90;;;;;;5096841;28;20031;-79
2021/11/12 00:28:12;;;;;;;1.20;1.17;;;2.70;99.90;;;;;;5096684;28;20047;-78
2021/11/12 00:40:06;;;;;;;1.48;0.95;;;2.60;99.90;;;;;;5095873;28;20168;-79
2021/11/12 00:45:54;;;;;;;0.10;0.10;;;2.60;99.90;;;;;;5095010;28;20082;-78
2021/11/12 00:48:53;;;;;;;7.78;7.07;;;2.60;99.90;;;;;;5095973;28;20105;-78
2021/11/12 00:51:51;;;;;;;0.20;0.20;;;2.60;99.90;;;;;;5095801;28;20125;-78
2021/11/12 00:54:37;;;;;;;1.55;1.38;;;2.60;99.90;;;;;;5094898;28;20571;-77
2021/11/12 00:57:21;;;;;;;2.88;2.63;;;2.60;99.90;;;;;;5094729;28;20108;-77
2021/11/12 01:00:08;;;;;;;1.60;0.93;;;2.60;99.90;;;;;;5095712;28;20046;-77
2021/11/12 01:02:53;;;;;;;1.55;1.45;;;2.70;99.90;;;;;;5093830;28;20221;-78
2021/11/12 01:05:38;;;;;;;1.77;1.63;;;2.70;99.90;;;;;;5095362;28;20047;-78
2021/11/12 01:08:23;;;;;;;0.63;0.63;;;2.70;99.90;;;;;;5095571;28;20625;-78
2021/11/12 01:11:07;;;;;;;0.20;0.20;;;2.70;99.90;;;;;;5095194;28;20150;-77
2021/11/12 01:13:52;;;;;;;1.25;1.15;;;2.70;99.90;;;;;;5095407;28;20039;-77
2021/11/12 01:16:37;;;;;;;9.15;1.23;;;2.50;99.90;;;;;;5095583;28;20119;-78
2021/11/12 01:19:22;;;;;;;2.40;1.85;;;2.50;99.90;;;;;;5095651;28;20043;-77
2021/11/12 01:22:06;;;;;;;2.75;2.55;;;2.40;99.90;;;;;;5093802;28;20055;-77
2021/11/12 01:24:51;;;;;;;0.60;0.60;;;2.40;99.90;;;;;;5095152;28;20082;-78
2021/11/12 01:27:36;;;;;;;0.38;0.38;;;2.40;99.90;;;;;;5094485;28;20043;-78
2021/11/12 01:30:20;;;;;;;4.05;2.58;;;2.50;99.90;;;;;;5095268;28;20046;-78
2021/11/12 01:33:05;;;;;;;0.45;0.45;;;2.50;99.90;;;;;;5095090;28;20089;-78
2021/11/12 01:35:50;;;;;;;0.52;0.52;;;2.50;99.90;;;;;;5094986;28;20039;-79
2021/11/12 01:38:35;;;;;;;1.45;1.35;;;2.50;99.90;;;;;;5094065;28;20046;-78
2021/11/12 01:41:20;;;;;;;1.10;1.05;;;2.60;99.90;;;;;;5095305;28;20042;-78
2021/11/12 01:44:08;;;;;;;1.27;1.23;;;2.60;99.90;;;;;;5093400;28;20498;-78
2021/11/12 01:47:06;;;;;;;3.78;1.83;;;2.60;99.90;;;;;;5095366;28;20043;-78
2021/11/12 01:49:53;;;;;;;0.57;0.57;;;2.60;99.90;;;;;;5081530;28;20577;-78
2021/11/12 01:52:44;;;;;;;3.17;1.67;;;2.50;99.90;;;;;;5094016;28;20547;-78
2021/11/12 01:58:38;;;;;;;1.02;1.02;;;2.50;99.90;;;;;;5093603;28;20112;-78
2021/11/12 02:01:24;;;;;;;1.50;1.40;;;2.50;99.90;;;;;;5093620;28;20075;-80
2021/11/12 02:04:10;;;;;;;1.30;1.20;;;2.40;99.90;;;;;;5093522;28;20047;-78
2021/11/12 02:06:56;;;;;;;1.70;1.58;;;2.50;99.90;;;;;;5094889;28;20039;-79
2021/11/12 02:09:40;;;;;;;0.60;0.60;;;2.60;99.90;;;;;;5094383;28;20043;-79
2021/11/12 02:12:29;;;;;;;0.88;0.75;;;2.60;99.90;;;;;;5093967;28;20054;-78
2021/11/12 02:15:14;;;;;;;0.50;0.50;;;2.50;99.90;;;;;;5093993;28;20078;-78
2021/11/12 02:18:04;;;;;;;0.30;0.30;;;2.50;99.90;;;;;;5094129;28;20046;-79
2021/11/12 02:24:07;;;;;;;7.50;1.67;;;2.50;99.90;;;;;;5087470;28;20055;-78
2021/11/12 02:26:56;;;;;;;0.30;0.30;;;2.40;99.90;;;;;;5093173;28;20388;-79
2021/11/12 02:29:46;;;;;;;1.00;0.98;;;2.40;99.90;;;;;;5092789;28;20120;-79
2021/11/12 02:32:31;;;;;;;2.22;1.88;;;2.40;99.90;;;;;;5093699;28;20042;-78
2021/11/12 02:35:16;;;;;;;2.25;2.10;;;2.40;99.90;;;;;;5093969;28;20043;-79
2021/11/12 02:38:03;;;;;;;0.52;0.52;;;2.30;99.90;;;;;;5093604;28;20125;-78
2021/11/12 02:40:48;;;;;;;0.88;0.88;;;2.30;99.90;;;;;;5093119;28;20173;-78
2021/11/12 02:43:35;;;;;;;0.70;0.70;;;2.30;99.90;;;;;;5093619;28;20092;-79
2021/11/12 02:46:25;;;;;;;0.35;0.35;;;2.30;99.90;;;;;;5093787;28;20062;-78
2021/11/12 02:49:09;;;;;;;0.75;0.75;;;2.30;99.90;;;;;;5092464;28;20416;-79
2021/11/12 02:51:55;;;;;;;1.65;1.55;;;2.30;99.90;;;;;;5093419;28;20100;-79
2021/11/12 02:54:39;;;;;;;1.27;1.17;;;2.40;99.90;;;;;;5092588;28;20074;-79
2021/11/12 02:57:29;;;;;;;9.63;3.17;;;2.30;99.90;;;;;;5093476;28;20039;-79
2021/11/12 03:00:15;;;;;;;1.38;1.02;;;2.30;99.90;;;;;;5093284;28;20043;-79
2021/11/12 03:03:00;;;;;;;0.95;0.90;;;2.30;99.90;;;;;;5093021;28;20124;-79
2021/11/12 03:05:44;;;;;;;2.50;2.15;;;2.20;99.90;;;;;;5093601;28;20113;-79
2021/11/12 03:08:29;;;;;;;0.10;0.10;;;2.30;99.90;;;;;;5093153;28;20116;-79
2021/11/12 03:11:14;;;;;;;1.33;1.25;;;2.40;99.90;;;;;;5092099;28;20499;-79
2021/11/12 03:13:59;;;;;;;0.52;0.52;;;2.40;99.90;;;;;;5092921;28;20568;-79
2021/11/12 03:16:43;;;;;;;1.65;1.55;;;2.40;99.90;;;;;;5093074;28;20030;-78
2021/11/12 03:19:30;;;;;;;0.25;0.25;;;2.40;99.90;;;;;;5092970;28;20636;-79
2021/11/12 03:22:19;;;;;;;9.95;2.40;;;2.40;99.90;;;;;;5091533;28;20511;-79
2021/11/12 03:25:10;;;;;;;0.93;0.90;;;2.30;99.90;;;;;;5092114;28;20105;-79
2021/11/12 04:01:46;;;;;;;0.30;0.30;;;2.10;99.90;;;;;;5092858;28;20039;-78
2021/11/12 04:04:46;;;;;;;0.75;0.75;;;2.10;99.90;;;;;;5092686;28;20449;-79
2021/11/12 05:44:30;;;;;;;2.75;2.55;;;1.80;99.90;;;;;;5094463;28;20565;-70
2021/11/12 05:50:16;;;;;;;0.28;0.28;;;1.80;99.90;;;;;;5093597;28;20189;-71
2021/11/12 05:56:06;;;;;;;2.35;1.73;;;1.80;99.90;;;;;;5074009;28;20052;-69
2021/11/12 05:58:51;;;;;;;0.30;0.30;;;1.70;99.90;;;;;;5073332;28;20453;-70
2021/11/12 06:01:36;;;;;;;0.20;0.20;;;1.80;99.90;;;;;;5074032;28;20043;-72
2021/11/12 06:04:21;;;;;;;2.85;1.63;;;1.60;99.90;;;;;;5073942;28;20044;-73
2021/11/12 06:07:05;;;;;;;0.15;0.15;;;1.60;99.90;;;;;;5074076;28;20400;-73
2021/11/12 06:09:50;;;;;;;1.17;0.75;;;1.70;99.90;;;;;;5073915;28;20071;-74
2021/11/12 06:12:34;;;;;;;0.25;0.25;;;1.70;99.90;;;;;;5073611;28;20106;-73
2021/11/12 06:15:19;;;;;;;0.30;0.30;;;1.80;99.90;;;;;;5074085;28;20043;-73
2021/11/12 06:18:05;;;;;;;0.10;0.10;;;1.70;99.90;;;;;;5072448;28;20627;-74
2021/11/12 06:20:49;;;;;;;0.73;0.73;;;1.70;99.90;;;;;;5073400;28;20052;-73
2021/11/12 06:23:35;;;;;;;0.20;0.20;;;1.70;99.90;;;;;;5073277;28;20044;-74
2021/11/12 06:26:19;;;;;;;0.63;0.63;;;1.70;99.90;;;;;;5073761;28;20079;-73
2021/11/12 06:29:05;;;;;;;0.25;0.25;;;1.70;99.90;;;;;;5086669;28;20047;-74
2021/11/12 06:31:50;;;;;;;0.57;0.57;;;1.80;99.90;;;;;;5073394;28;20039;-70
2021/11/12 06:34:34;;;;;;;0.75;0.75;;;1.70;99.90;;;;;;5080212;28;20030;-71
2021/11/12 06:37:19;;;;;;;0.20;0.20;;;1.80;99.90;;;;;;5086654;28;20088;-70
2021/11/12 06:40:05;;;;;;;1.00;0.98;;;1.80;99.90;;;;;;5093666;28;20082;-70
2021/11/12 06:43:40;;;;;;;0.13;0.13;;;1.80;99.90;;;;;;5093001;28;20116;-70
2021/11/12 06:52:25;;;;;;;0.90;0.55;;;1.90;99.90;;;;;;5070134;28;20070;-70
2021/11/12 06:55:12;;;;;;;1.33;1.23;;;1.80;99.90;;;;;;5070464;28;20043;-70
2021/11/12 06:57:59;;;;;;;1.10;1.08;;;1.80;99.90;;;;;;5088483;28;20188;-71
2021/11/12 07:00:50;;;;;;;0.10;0.10;;;1.70;99.90;;;;;;5092808;28;20043;-71
2021/11/12 07:03:35;;;;;;;1.23;1.15;;;1.70;99.90;;;;;;5092649;28;20616;-71
2021/11/12 07:06:19;;;;;;;0.63;0.63;;;1.80;99.90;;;;;;5092410;28;20043;-71
2021/11/12 07:09:06;;;;;;;1.67;1.58;;;1.70;99.90;;;;;;5091851;28;20078;-71
2021/11/12 07:11:50;;;;;;;0.55;0.55;;;1.80;99.90;;;;;;5093159;28;20038;-71
2021/11/12 07:14:35;;;;;;;0.40;0.40;;;1.70;99.90;;;;;;5093055;28;20042;-71
2021/11/12 07:17:20;;;;;;;0.57;0.57;;;1.80;99.90;;;;;;5093053;28;20172;-71
2021/11/12 07:20:06;;;;;;;0.30;0.30;;;1.80;99.90;;;;;;5091689;28;20566;-71
2021/11/12 07:22:50;;;;;;;0.10;0.10;;;1.80;99.90;;;;;;5092663;28;20090;-70
2021/11/12 07:25:35;;;;;;;1.75;1.65;;;1.80;99.90;;;;;;5092654;28;20092;-70
2021/11/12 07:28:23;;;;;;;0.60;0.60;;;1.90;99.90;;;;;;5092596;28;20614;-70
2021/11/12 07:31:08;;;;;;;0.60;0.60;;;1.90;99.90;;;;;;5091924;28;20156;-70
2021/11/12 07:33:58;;;;;;;0.10;0.10;;;2.00;99.90;;;;;;5092561;28;20062;-69
2021/11/12 07:36:52;;;;;;;1.85;1.77;;;1.90;99.90;;;;;;5092773;28;20124;-68
2021/11/12 07:45:40;;;;;;;2.50;2.38;;;2.00;99.90;;;;;;5083134;28;20123;-69
2021/11/12 07:48:25;;;;;;;0.05;0.05;;;2.00;99.90;;;;;;5090191;28;20055;-69
2021/11/12 07:51:10;;;;;;;0.55;0.55;;;2.00;99.90;;;;;;5091306;28;20043;-69
2021/11/12 07:53:55;;;;;;;3.47;1.45;;;2.00;99.90;;;;;;5092344;28;20047;-68
2021/11/12 07:56:39;;;;;;;0.52;0.52;;;2.00;99.90;;;;;;5092658;28;20152;-68
2021/11/12 07:59:24;;;;;;;7.78;1.95;;;2.00;99.90;;;;;;5092302;28;20051;-68
2021/11/12 08:02:11;;;;;;;0.30;0.30;;;1.90;99.90;;;;;;5092486;28;20074;-69
2021/11/12 08:05:00;;;;;;;0.65;0.65;;;2.00;99.90;;;;;;5092357;28;20466;-69
2021/11/12 08:07:45;;;;;;;0.73;0.73;;;2.10;99.90;;;;;;5092295;28;20047;-69
2021/11/12 08:10:33;;;;;;;2.80;2.10;;;2.10;99.90;;;;;;5092130;28;20078;-69
2021/11/12 08:19:16;;;;;;;0.85;0.85;;;2.30;99.90;;;;;;5095762;28;20416;-69
2021/11/12 08:42:45;;;;;;;1.45;1.35;;;2.30;99.90;;;;;;5095473;28;20560;-69
2021/11/12 08:45:34;;;;;;;0.50;0.50;;;2.40;99.90;;;;;;5095599;28;20107;-69
2021/11/12 08:48:24;;;;;;;0.57;0.57;;;2.50;99.90;;;;;;5094445;28;20133;-69
2021/11/12 08:51:14;;;;;;;0.85;0.85;;;2.50;99.90;;;;;;5095464;28;20043;-69
2021/11/12 08:54:00;;;;;;;1.17;1.17;;;2.40;99.90;;;;;;5095306;28;20059;-68
2021/11/12 08:56:44;;;;;;;2.47;2.15;;;2.40;99.90;;;;;;5079689;28;20089;-69
2021/11/12 08:59:29;;;;;;;0.10;0.10;;;2.40;99.90;;;;;;5092342;28;20047;-68
2021/11/12 09:02:19;;;;;;;0.95;0.95;;;2.50;99.90;;;;;;5091542;28;20093;-70
2021/11/12 09:05:04;;;;;;;2.30;0.90;;;2.40;99.90;;;;;;5094054;28;20055;-69
2021/11/12 09:07:50;;;;;;;1.27;1.17;;;2.40;99.90;;;;;;5093950;28;20042;-70
2021/11/12 09:10:35;;;;;;;0.45;0.45;;;2.40;99.90;;;;;;5095420;28;20043;-70
2021/11/12 09:13:22;;;;;;;1.00;1.00;;;2.50;99.90;;;;;;5093993;28;20385;-70
2021/11/12 09:16:13;;;;;;;4.00;2.00;;;2.50;99.90;;;;;;5095170;28;20047;-70
2021/11/12 09:18:58;;;;;;;3.17;2.63;;;2.40;99.90;;;;;;5094001;28;20074;-70
2021/11/12 09:21:47;;;;;;;0.30;0.30;;;2.50;99.90;;;;;;5094660;28;20152;-70
2021/11/12 09:24:31;;;;;;;6.88;2.55;;;2.50;99.90;;;;;;5093487;28;20055;-70
2021/11/12 09:27:20;;;;;;;2.22;2.10;;;2.50;99.90;;;;;;5094461;28;20113;-70
2021/11/12 09:30:09;;;;;;;0.45;0.45;;;2.50;99.90;;;;;;5093907;28;20132;-70
2021/11/12 09:32:55;;;;;;;1.45;1.38;;;2.50;99.90;;;;;;5094801;28;20166;-69
2021/11/12 09:35:41;;;;;;;0.20;0.20;;;2.50;99.90;;;;;;5093630;28;20032;-69
2021/11/12 09:38:26;;;;;;;2.60;1.48;;;2.50;99.90;;;;;;5094582;28;20081;-70
2021/11/12 09:41:11;;;;;;;1.60;1.48;;;2.50;99.90;;;;;;5094598;28;20043;-70
2021/11/12 09:43:56;;;;;;;0.40;0.40;;;2.50;99.90;;;;;;5093635;28;20038;-70
2021/11/12 09:46:44;;;;;;;0.50;0.50;;;2.50;99.90;;;;;;5093722;28;20154;-70
2021/11/12 09:49:28;;;;;;;2.17;2.08;;;2.50;99.90;;;;;;5093278;28;20034;-70
2021/11/12 09:52:14;;;;;;;0.80;0.80;;;2.50;99.90;;;;;;5094243;28;20063;-71
2021/11/12 09:55:00;;;;;;;0.90;0.90;;;2.60;99.90;;;;;;5094451;28;20063;-70
2021/11/12 09:57:44;;;;;;;7.60;3.72;;;2.60;99.90;;;;;;5093350;28;20063;-70
2021/11/12 10:00:32;;;;;;;2.42;2.25;;;2.60;99.90;;;;;;5094176;28;20035;-70
2021/11/12 10:03:17;;;;;;;0.13;0.13;;;2.70;99.90;;;;;;5092998;28;20074;-70
2021/11/12 10:06:27;;;;;;;0.30;0.30;;;2.40;99.90;;;;;;5094086;28;20487;-70
2021/11/12 10:09:18;;;;;;;1.10;1.08;;;2.50;99.90;;;;;;5094000;28;20492;-70
2021/11/12 10:12:05;;;;;;;;;;;2.50;99.90;;;;;;5094351;28;20066;-70
2021/11/12 10:14:52;;;;;;;0.68;0.68;;;2.60;99.90;;;;;;5093700;28;19935;-71
2021/11/12 10:17:37;;;;;;;0.47;0.45;;;2.60;99.90;;;;;;5093740;28;20123;-70
2021/11/12 10:20:22;;;;;;;1.67;0.80;;;2.60;99.90;;;;;;5093357;28;20393;-71
2021/11/12 10:23:16;;;;;;;2.22;2.13;;;2.60;99.90;;;;;;5092659;28;20097;-70
2021/11/12 10:26:06;;;;;;;0.63;0.63;;;2.50;99.90;;;;;;5093805;28;20162;-71
2021/11/12 10:28:52;;;;;;;0.98;0.45;;;2.50;99.90;;;;;;5093713;28;20496;-71
2021/11/12 10:31:50;;;;;;;4.80;2.95;;;2.50;99.90;;;;;;5093541;28;20050;-71
2021/11/12 10:34:41;;;;;;;0.20;0.20;;;2.50;99.90;;;;;;5093675;28;20078;-71
2021/11/12 10:37:31;;;;;;;1.48;1.38;;;2.60;99.90;;;;;;5092408;28;20123;-71
2021/11/12 10:40:23;;;;;;;12.10;3.63;;;2.60;99.90;;;;;;5092285;28;20086;-71
2021/11/12 10:43:07;;;;;;;0.52;0.52;;;2.50;99.90;;;;;;5092373;28;20496;-71
2021/11/12 10:46:06;;;;;;;1.38;1.30;;;2.50;99.90;;;;;;5093537;28;20046;-70
2021/11/12 10:48:50;;;;;;;0.20;0.20;;;2.50;99.90;;;;;;5093400;28;20082;-71
2021/11/12 10:51:55;;;;;;;0.10;0.10;;;2.50;99.90;;;;;;5092114;28;20042;-70
2021/11/12 10:54:52;;;;;;;0.47;0.47;;;2.50;99.90;;;;;;5093301;28;20066;-71
2021/11/12 10:57:48;;;;;;;3.90;1.85;;;2.50;99.90;;;;;;5092382;28;20038;-70
2021/11/12 11:00:44;;;;;;;1.30;1.20;;;2.60;99.90;;;;;;5093348;28;20535;-70
2021/11/12 11:03:29;;;;;;;0.45;0.45;;;2.60;99.90;;;;;;5087139;28;20119;-70
2021/11/12 11:06:23;;;;;;;6.13;3.33;;;2.60;99.90;;;;;;5074175;28;20070;-70
2021/11/12 11:09:07;;;;;;;1.05;1.05;;;2.50;99.90;;;;;;5073227;28;20051;-70
2021/11/12 11:11:51;;;;;;;0.10;0.10;;;2.40;99.90;;;;;;5072628;28;20039;-70
2021/11/12 11:14:39;;;;;;;0.93;0.93;;;2.50;99.90;;;;;;5073566;28;20052;-70
2021/11/12 11:17:27;;;;;;;0.90;0.90;;;2.50;99.90;;;;;;5073615;28;20056;-70
2021/11/12 11:20:17;;;;;;;0.20;0.20;;;2.50;99.90;;;;;;5072343;28;20047;-71
2021/11/12 11:23:02;;;;;;;1.67;1.58;;;2.50;99.90;;;;;;5073204;28;20143;-71
2021/11/12 11:26:05;;;;;;;2.13;1.23;;;2.60;99.90;;;;;;5071535;28;20043;-70
2021/11/12 11:28:53;;;;;;;0.70;0.70;;;2.50;99.90;;;;;;5072639;28;20043;-71
2021/11/12 11:31:38;;;;;;;1.80;1.70;;;2.40;99.90;;;;;;5071251;28;20047;-69
2021/11/12 11:34:24;;;;;;;0.65;0.65;;;2.50;99.90;;;;;;5071434;28;20058;-71
2021/11/12 11:37:09;;;;;;;1.65;1.55;;;2.60;99.90;;;;;;5072401;28;20047;-70
2021/11/12 11:39:57;;;;;;;1.15;1.15;;;2.60;99.90;;;;;;5071457;28;20039;-70
2021/11/12 11:42:43;;;;;;;2.40;2.20;;;2.50;99.90;;;;;;5071698;28;20539;-70
2021/11/12 11:45:27;;;;;;;1.85;1.75;;;2.50;99.90;;;;;;5072031;28;20142;-69
2021/11/12 11:48:13;;;;;;;0.20;0.20;;;2.60;99.90;;;;;;5071831;28;20036;-69
2021/11/12 11:51:00;;;;;;;2.17;0.98;;;2.60;99.90;;;;;;5071117;28;20047;-69
2021/11/12 11:53:49;;;;;;;2.75;2.55;;;2.50;99.90;;;;;;5072255;28;20496;-69
2021/11/12 11:56:46;;;;;;;1.52;1.42;;;2.50;99.90;;;;;;5072010;28;20069;-68
2021/11/12 11:59:35;;;;;;;1.65;0.98;;;2.50;99.90;;;;;;5071773;28;20151;-68
2021/11/12 12:02:21;;;;;;;0.88;0.88;;;2.50;99.90;;;;;;5070812;28;20102;-69
2021/11/12 12:05:07;;;;;;;3.10;2.90;;;2.50;99.90;;;;;;5071832;28;20078;-68
2021/11/12 12:07:54;;;;;;;1.45;1.38;;;2.50;99.90;;;;;;5072013;28;20043;-68
2021/11/12 12:10:39;;;;;;;0.70;0.70;;;2.60;99.90;;;;;;5071939;28;20479;-69
2021/11/12 12:13:27;;;;;;;1.48;1.38;;;2.60;99.90;;;;;;5071078;28;20073;-69
2021/11/12 12:16:22;;;;;;;7.50;3.72;;;2.50;99.90;;;;;;5072189;28;20062;-69
2021/11/12 12:20:09;;;;;;;4.40;3.13;;;2.40;99.90;;;;;;5071234;28;20071;-69
2021/11/12 12:32:54;;;;;;;0.43;0.43;;;2.50;99.90;;;;;;5070795;28;20082;-69
2021/11/12 12:35:48;;;;;;;3.78;1.88;;;2.50;99.90;;;;;;5071423;28;20054;-69
2021/11/12 13:25:54;;;;;;;0.85;0.50;;;2.40;99.90;;;;;;5095012;28;20447;-68
2021/11/12 13:28:44;;;;;;;1.70;1.58;;;2.40;99.90;;;;;;5094866;28;20039;-69
2021/11/12 13:31:29;;;;;;;0.82;0.82;;;2.40;99.90;;;;;;5094783;28;20066;-68
2021/11/12 13:34:13;;;;;;;1.27;1.27;;;2.40;99.90;;;;;;5094480;28;20511;-69
2021/11/12 13:36:58;;;;;;;2.10;1.90;;;2.40;99.90;;;;;;5094787;28;20028;-68
2021/11/12 13:39:44;;;;;;;1.48;1.40;;;2.40;99.90;;;;;;5093693;28;20047;-68
2021/11/12 13:42:29;;;;;;;0.85;0.85;;;2.40;99.90;;;;;;5093520;28;20043;-68
2021/11/12 13:45:22;;;;;;;1.65;1.55;;;2.50;99.90;;;;;;5094740;28;20093;-69
2021/11/12 13:48:13;;;;;;;1.75;1.67;;;2.40;99.90;;;;;;5094541;28;20035;-69
2021/11/12 13:51:01;;;;;;;1.02;0.95;;;2.40;99.90;;;;;;5094544;28;20074;-68
2021/11/12 13:53:48;;;;;;;0.82;0.73;;;2.40;99.90;;;;;;5093484;28;20074;-68
2021/11/12 13:56:35;;;;;;;1.15;1.10;;;2.40;99.90;;;;;;5093324;28;20066;-69
2021/11/12 13:59:19;;;;;;;4.68;2.05;;;2.50;99.90;;;;;;5094134;28;20062;-69
2021/11/12 14:02:05;;;;;;;0.20;0.20;;;2.50;99.90;;;;;;5094031;28;20089;-69
2021/11/12 14:04:50;;;;;;;4.82;2.38;;;2.50;99.90;;;;;;5094170;28;20047;-69
2021/11/12 14:07:34;;;;;;;1.02;0.40;;;2.60;99.90;;;;;;5092999;28;20146;-68
2021/11/12 14:10:19;;;;;;;1.52;1.42;;;2.50;99.90;;;;;;5092796;28;20039;-69
2021/11/12 14:13:06;;;;;;;2.13;2.03;;;2.60;99.90;;;;;;5094119;28;20055;-69
2021/11/12 14:26:11;;;;;;;1.02;1.02;;;2.50;99.90;;;;;;5092280;28;20052;-69
2021/11/12 14:29:04;;;;;;;0.73;0.73;;;2.50;99.90;;;;;;5092592;28;20435;-67
2021/11/12 14:38:27;;;;;;;1.80;1.65;;;2.40;99.90;;;;;;5092645;28;20043;-69
2021/11/12 14:47:04;;;;;;;4.78;1.70;;;2.30;99.90;;;;;;5093080;28;20078;-69
2021/11/12 14:56:25;;;;;;;0.20;0.20;;;2.40;99.90;;;;;;5093031;28;20081;-69
2021/11/12 14:59:16;;;;;;;0.25;0.25;;;2.40;99.90;;;;;;5092249;28;20035;-68
2021/11/12 15:02:03;;;;;;;3.22;2.90;;;2.40;99.90;;;;;;5092092;28;20043;-68
2021/11/12 15:04:48;;;;;;;3.03;1.98;;;2.40;99.90;;;;;;5092895;28;20138;-68
2021/11/12 15:08:18;;;;;;;0.57;0.57;;;2.40;99.90;;;;;;5091756;28;20553;-68
2021/11/12 15:10:41;;;;;;;2.33;1.75;;;2.40;99.90;;;;;;5092350;28;20047;-69
2021/11/12 15:13:28;;;;;;;0.38;0.38;;;2.40;99.90;;;;;;5092443;28;20038;-69
2021/11/12 15:16:24;;;;;;;1.15;1.08;;;2.40;99.90;;;;;;5092096;28;20310;-69
2021/11/12 15:19:13;;;;;;;2.67;2.47;;;2.30;99.90;;;;;;5091646;28;20089;-69
2021/11/12 15:25:00;;;;;;;1.08;1.02;;;2.40;99.90;;;;;;5092564;28;20039;-68
2021/11/12 15:30:40;;;;;;;1.65;1.55;;;2.40;99.90;;;;;;5092306;28;20030;-68
2021/11/12 15:33:25;;;;;;;1.40;1.35;;;2.40;99.90;;;;;;5078793;28;20047;-69
2021/11/12 15:36:11;;;;;;;3.83;2.42;;;2.40;99.90;;;;;;5092487;28;20500;-68
2021/11/12 15:39:07;;;;;;;1.42;1.33;;;2.40;99.90;;;;;;5091447;28;20122;-68
2021/11/12 15:42:13;;;;;;;6.45;2.13;;;2.40;99.90;;;;;;5091557;28;20047;-68
2021/11/12 15:45:07;;;;;;;0.95;0.95;;;2.40;99.90;;;;;;5091551;28;20086;-69
2021/11/12 15:48:05;;;;;;;0.82;0.82;;;2.40;99.90;;;;;;5078296;28;20039;-67
2021/11/12 16:00:00;;;;;;;1.67;1.38;;;2.30;99.90;;;;;;5092025;28;20069;-68
2021/11/12 16:06:04;;;;;;;7.03;2.83;;;2.40;99.90;;;;;;5091837;28;20042;-68
2021/11/12 16:11:52;;;;;;;1.98;1.88;;;2.30;99.90;;;;;;5091821;28;20446;-68
2021/11/12 16:20:58;;;;;;;3.28;0.95;;;2.40;99.90;;;;;;5091437;28;20105;-67
2021/11/12 16:26:29;;;;;;;6.50;3.53;;;2.40;99.90;;;;;;5091780;28;20125;-67
2021/11/12 16:32:05;;;;;;;0.85;0.80;;;2.40;99.90;;;;;;5091870;28;20112;-66
2021/11/12 16:34:55;;;;;;;1.17;1.17;;;2.50;99.90;;;;;;5093503;28;20393;-67
2021/11/12 16:37:40;;;;;;;5.47;3.00;;;2.50;99.90;;;;;;5094545;28;20043;-69
2021/11/12 16:40:30;;;;;;;0.73;0.73;;;2.50;99.90;;;;;;5109317;28;20546;-69
2021/11/12 16:57:47;;;;;;;0.70;0.70;;;2.40;99.90;;;;;;5095337;28;20043;-67
2021/11/12 17:01:19;;;;;;;2.35;2.15;;;2.30;99.90;;;;;;5094483;28;20043;-67
2021/11/12 17:10:06;;;;;;;3.25;1.10;;;2.20;99.90;;;;;;5094964;28;20047;-68
2021/11/12 17:50:11;;;;;;;4.38;3.15;;;2.30;99.90;;;;;;5094570;28;20046;-71
2021/11/12 18:01:56;;;;;;;3.08;2.78;;;2.30;99.90;;;;;;5094371;28;20078;-70
2021/11/12 18:05:24;;;;;;;0.30;0.30;;;2.30;99.90;;;;;;5076438;28;20123;-72
2021/11/12 18:11:13;;;;;;;0.98;0.98;;;2.30;99.90;;;;;;5073702;28;20059;-71
2021/11/12 18:23:12;;;;;;;0.75;0.75;;;2.30;99.90;;;;;;5072660;28;20560;-72
2021/11/12 21:48:51;;;;;;;0.75;0.68;;;2.30;99.90;;;;;;5073140;28;20081;-70
2021/11/12 21:51:41;;;;;;;2.17;0.65;;;2.30;99.90;;;;;;5074352;28;20393;-70
2021/11/12 21:54:25;;;;;;;0.90;0.90;;;2.30;99.90;;;;;;5073248;28;20031;-70
2021/11/12 21:57:10;;;;;;;0.45;0.45;;;2.30;99.90;;;;;;5074066;28;20070;-70
2021/11/12 21:59:54;;;;;;;2.53;1.75;;;2.30;99.90;;;;;;5074045;28;20093;-70
2021/11/12 22:02:39;;;;;;;0.50;0.50;;;2.40;99.90;;;;;;5074012;28;20074;-70
2021/11/12 22:05:25;;;;;;;0.20;0.20;;;2.30;99.90;;;;;;5058979;28;20101;-69
2021/11/12 22:08:10;;;;;;;0.95;0.93;;;2.30;99.90;;;;;;5073113;28;20086;-70
2021/11/12 22:11:03;;;;;;;0.90;0.90;;;2.30;99.90;;;;;;5073717;28;20058;-70
2021/11/12 22:13:48;;;;;;;4.57;2.20;;;2.30;99.90;;;;;;5059351;28;20397;-70
2021/11/12 22:16:34;;;;;;;2.05;1.95;;;2.30;99.90;;;;;;5072918;28;20044;-70
2021/11/12 22:19:19;;;;;;;0.85;0.85;;;2.30;99.90;;;;;;5073087;28;20101;-70
2021/11/12 22:22:03;;;;;;;1.00;1.00;;;2.30;99.90;;;;;;5073269;28;20102;-70
2021/11/12 22:24:49;;;;;;;1.63;1.52;;;2.40;99.90;;;;;;5073715;28;20047;-70
2021/11/12 22:27:33;;;;;;;0.50;0.50;;;2.40;99.90;;;;;;5073382;28;20040;-70
2021/11/12 22:30:18;;;;;;;0.40;0.40;;;2.50;99.90;;;;;;5072810;28;20086;-70
2021/11/12 22:33:04;;;;;;;0.57;0.57;;;2.40;99.90;;;;;;5072102;28;20028;-71
2021/11/12 22:35:49;;;;;;;0.52;0.52;;;2.40;99.90;;;;;;5072282;28;20044;-70
2021/11/12 22:38:33;;;;;;;1.38;1.27;;;2.40;99.90;;;;;;5073438;28;20094;-70
2021/11/12 22:41:18;;;;;;;3.05;2.75;;;2.40;99.90;;;;;;5086525;28;20066;-70
2021/11/12 22:44:05;;;;;;;16.55;4.95;;;2.50;99.90;;;;;;5072842;28;20047;-69
2021/11/12 22:46:49;;;;;;;1.25;1.15;;;2.40;99.90;;;;;;5071986;28;20044;-70
2021/11/12 22:49:37;;;;;;;3.67;2.72;;;2.40;99.90;;;;;;5072013;28;20194;-70
2021/11/12 22:52:21;;;;;;;4.28;2.75;;;2.40;99.90;;;;;;5071903;28;20035;-70
2021/11/12 22:55:07;;;;;;;0.10;0.10;;;2.50;99.90;;;;;;5071810;28;20042;-69
2021/11/12 22:57:52;;;;;;;6.97;6.30;;;2.40;99.90;;;;;;5072964;28;20082;-70
2021/11/12 23:01:01;;;;;;;0.47;0.47;;;2.50;99.90;;;;;;5073096;28;20043;-70
2021/11/12 23:03:47;;;;;;;2.08;1.95;;;2.40;99.90;;;;;;5071777;28;20043;-69
2021/11/12 23:06:31;;;;;;;4.88;4.38;;;2.50;99.90;;;;;;5072642;28;20036;-70
2021/11/12 23:09:16;;;;;;;7.03;2.30;;;2.50;99.90;;;;;;5071729;28;20103;-70
2021/11/12 23:12:01;;;;;;;1.42;1.15;;;2.50;99.90;;;;;;5071537;28;20067;-70
2021/11/12 23:14:45;;;;;;;1.42;1.17;;;2.50;99.90;;;;;;5071725;28;20048;-70
2021/11/12 23:17:33;;;;;;;3.20;0.75;;;2.50;99.90;;;;;;5071596;28;20067;-70
2021/11/12 23:20:18;;;;;;;2.38;2.22;;;2.50;99.90;;;;;;5072596;28;20579;-70
2021/11/12 23:23:05;;;;;;;0.28;0.28;;;2.50;99.90;;;;;;5072694;28;20083;-70
2021/11/12 23:25:50;;;;;;;0.40;0.40;;;2.50;99.90;;;;;;5072704;28;20059;-69
2021/11/12 23:28:35;;;;;;;0.93;0.93;;;2.50;99.90;;;;;;5072375;28;20039;-69
2021/11/12 23:31:22;;;;;;;1.65;1.55;;;2.50;99.90;;;;;;5072556;28;20043;-69
2021/11/12 23:34:07;;;;;;;0.30;0.30;;;2.50;99.90;;;;;;5072463;28;20036;-70
2021/11/12 23:36:51;;;;;;;0.65;0.65;;;2.50;99.90;;;;;;5072643;28;20113;-70
2021/11/12 23:39:36;;;;;;;1.25;1.25;;;2.50;99.90;;;;;;5072430;28;20081;-69
2021/11/12 23:42:21;;;;;;;2.17;2.00;;;2.50;99.90;;;;;;5072370;28;20048;-69
2021/11/12 23:45:07;;;;;;;0.77;0.77;;;2.50;99.90;;;;;;5071622;28;20090;-70
2021/11/12 23:47:51;;;;;;;1.27;1.23;;;2.50;99.90;;;;;;5072407;28;20058;-69
2021/11/12 23:50:36;;;;;;;25.08;4.68;;;2.50;99.90;;;;;;5057274;28;20540;-70
2021/11/12 23:53:20;;;;;;;0.20;0.20;;;2.50;99.90;;;;;;5071524;28;20626;-69
2021/11/12 23:56:05;;;;;;;0.65;0.65;;;2.50;99.90;;;;;;5072320;28;20047;-70
2021/11/12 23:58:50;;;;;;;1.73;1.38;;;2.50;99.90;;;;;;5072418;28;20162;-71
